Time;durP1;ratioP1;P1;durP2;ratioP2;P2;SDS_P1;SDS_P2;PMS_P1;PMS_P2;Temp;Humidity;BMP_temperature;BMP_pressure;BME280_temperature;BME280_humidity;BME280_pressure;Samples;Min_cycle;Max_cycle;Signal;HPM_P1;HPM_P2
2022/06/24 00:02:20;;;;;;;12.23;6.45;;;;;;;21.60;74.09;69171.81;4963280;28;20055;-87
2022/06/24 00:05:18;;;;;;;8.02;5.43;;;;;;;21.58;71.83;69169.53;4985259;28;20132;-87
2022/06/24 00:07:59;;;;;;;9.25;5.65;;;;;;;21.60;70.28;69177.78;4956911;28;20596;-87
2022/06/24 00:10:43;;;;;;;9.60;5.38;;;;;;;;;;4953283;28;20101;-87
2022/06/24 00:13:08;;;;;;;7.38;5.13;;;;;;;21.71;68.69;69189.25;4980405;28;20573;-87
2022/06/24 00:15:35;;;;;;;6.47;5.28;;;;;;;21.66;67.95;69184.09;4967711;28;20303;-89
2022/06/24 00:18:14;;;;;;;8.18;5.32;;;;;;;21.72;67.04;69193.69;4969965;28;20501;-87
2022/06/24 00:20:43;;;;;;;8.13;4.72;;;;;;;21.76;65.99;69189.56;4986094;28;20051;-87
2022/06/24 00:23:09;;;;;;;7.53;4.68;;;;;;;;;;4969800;28;20054;-87
2022/06/24 00:25:37;;;;;;;6.20;4.50;;;;;;;;;;4961824;28;20518;-87
2022/06/24 00:28:03;;;;;;;6.43;4.18;;;;;;;;;;4967197;28;20132;-87
2022/06/24 00:30:29;;;;;;;6.05;3.47;;;;;;;22.02;60.63;69226.88;4970888;28;20066;-88
2022/06/24 00:33:09;;;;;;;7.38;4.00;;;;;;;22.13;58.61;69231.34;4969643;28;20134;-88
2022/06/24 00:35:40;;;;;;;4.78;3.60;;;;;;;22.22;58.49;69241.66;4964642;28;20054;-88
2022/06/24 00:38:20;;;;;;;6.43;3.70;;;;;;;22.30;57.49;69255.69;4995897;28;20125;-87
2022/06/24 00:40:47;;;;;;;4.55;3.38;;;;;;;22.35;56.80;69260.81;4991317;28;20074;-87
2022/06/24 00:43:32;;;;;;;4.85;3.58;;;;;;;;;;4989833;28;20125;-87
2022/06/24 00:46:18;;;;;;;5.82;3.60;;;;;;;22.45;55.66;69266.88;4983340;28;20115;-88
2022/06/24 00:48:48;;;;;;;4.32;3.70;;;;;;;22.53;54.59;69284.16;4987366;28;20050;-88
2022/06/24 00:51:14;;;;;;;5.80;3.47;;;;;;;22.54;55.25;69282.59;4983602;28;20136;-87
2022/06/24 00:53:44;;;;;;;6.43;3.40;;;;;;;;;;4985607;28;20045;-87
2022/06/24 00:56:11;;;;;;;4.50;3.58;;;;;;;;;;5007678;28;20038;-89
2022/06/24 00:58:37;;;;;;;4.82;3.28;;;;;;;22.78;53.74;69303.50;5007391;28;20039;-87
2022/06/24 01:01:02;;;;;;;6.55;3.40;;;;;;;;;;4993251;28;20041;-90
2022/06/24 01:03:37;;;;;;;5.32;3.45;;;;;;;22.96;53.51;69324.16;5001001;28;20392;-88
2022/06/24 01:06:02;;;;;;;4.45;3.50;;;;;;;22.90;53.46;69317.84;5006980;28;20033;-88
2022/06/24 01:08:28;;;;;;;4.15;3.47;;;;;;;22.88;53.49;69320.41;5003009;28;20041;-89
2022/06/24 01:10:53;;;;;;;7.93;3.72;;;;;;;;;;4992444;28;20513;-88
2022/06/24 01:13:18;;;;;;;6.07;3.65;;;;;;;;;;5007671;28;20038;-88
2022/06/24 01:15:44;;;;;;;5.78;3.20;;;;;;;;;;5009726;28;20046;-89
2022/06/24 01:18:09;;;;;;;4.00;3.28;;;;;;;;;;4990732;28;20460;-88
2022/06/24 01:20:35;;;;;;;4.35;3.53;;;;;;;22.82;52.82;69305.38;4987440;28;20042;-88
2022/06/24 01:23:00;;;;;;;4.35;3.60;;;;;;;;;;4999431;28;20034;-88
2022/06/24 01:25:26;;;;;;;7.95;3.58;;;;;;;22.86;52.49;69318.66;4991956;28;20046;-88
2022/06/24 01:27:51;;;;;;;7.43;3.47;;;;;;;22.88;52.22;69325.81;5018132;28;20037;-89
2022/06/24 01:30:17;;;;;;;7.72;3.65;;;;;;;22.88;52.20;69323.69;5021712;28;20038;-86
2022/06/24 01:32:42;;;;;;;5.25;3.08;;;;;;;22.91;51.16;69323.81;4999472;28;20070;-88
2022/06/24 01:35:08;;;;;;;4.72;3.88;;;;;;;22.96;51.37;69324.16;4981889;28;20050;-88
2022/06/24 01:37:33;;;;;;;4.18;3.05;;;;;;;23.02;51.76;69330.44;4990442;28;20119;-88
2022/06/24 01:39:58;;;;;;;7.63;3.35;;;;;;;;;;5002089;28;20105;-90
2022/06/24 01:42:24;;;;;;;4.05;3.53;;;;;;;23.05;51.26;69339.88;4990176;28;20046;-88
2022/06/24 01:44:50;;;;;;;4.53;3.70;;;;;;;23.03;52.46;69337.59;4977916;28;20042;-88
2022/06/24 01:47:15;;;;;;;7.95;3.95;;;;;;;22.96;54.47;69329.59;4998256;28;20042;-87
2022/06/24 01:49:41;;;;;;;6.13;4.85;;;;;;;22.82;56.35;69308.09;5008456;28;20560;-88
2022/06/24 01:52:06;;;;;;;6.03;4.70;;;;;;;;;;4993362;28;20042;-87
2022/06/24 01:54:31;;;;;;;7.10;4.72;;;;;;;22.63;57.92;69292.91;5000245;28;20541;-88
2022/06/24 01:57:00;;;;;;;7.13;4.88;;;;;;;22.58;58.67;69281.16;4998561;28;20301;-88
2022/06/24 01:59:25;;;;;;;7.88;4.90;;;;;;;22.56;58.56;69278.88;4988536;28;20042;-88
2022/06/24 02:01:51;;;;;;;6.80;5.22;;;;;;;;;;4984252;28;20047;-87
2022/06/24 02:04:16;;;;;;;6.57;4.90;;;;;;;22.46;58.54;69268.56;5001051;28;20039;-88
2022/06/24 02:06:42;;;;;;;5.90;4.78;;;;;;;22.49;58.46;69276.84;4989440;28;20053;-89
2022/06/24 02:09:07;;;;;;;7.03;4.75;;;;;;;22.47;58.69;69275.16;4978428;28;20051;-88
2022/06/24 02:14:19;;;;;;;8.43;5.40;;;;;;;;;;4988118;28;20097;-88
2022/06/24 02:16:45;;;;;;;10.32;5.63;;;;;;;;;;4992220;28;20505;-88
2022/06/24 02:19:10;;;;;;;10.93;7.00;;;;;;;22.05;68.24;69228.16;5003619;28;20038;-87
2022/06/24 02:21:36;;;;;;;15.35;7.38;;;;;;;;;;4989569;28;20045;-89
2022/06/24 02:24:02;;;;;;;13.02;7.88;;;;;;;21.79;72.93;69198.41;4994217;28;20600;-87
2022/06/24 02:26:28;;;;;;;12.98;9.43;;;;;;;21.62;77.48;69180.09;4999011;28;20030;-87
2022/06/24 02:28:54;;;;;;;13.57;9.90;;;;;;;21.54;78.29;69170.38;5023760;28;20045;-87
2022/06/24 02:31:20;;;;;;;13.40;10.40;;;;;;;;;;4992183;28;20104;-88
2022/06/24 02:33:48;;;;;;;16.05;10.57;;;;;;;21.29;85.11;69142.88;4988064;28;20046;-87
2022/06/24 02:36:14;;;;;;;14.40;11.38;;;;;;;;;;4989505;28;20729;-88
2022/06/24 02:38:39;;;;;;;17.08;11.77;;;;;;;21.13;86.69;69125.16;5011721;28;20049;-88
2022/06/24 02:41:08;;;;;;;16.17;13.02;;;;;;;21.13;88.04;69125.16;5010501;28;20057;-87
2022/06/24 02:43:36;;;;;;;17.85;12.95;;;;;;;21.09;88.26;69120.56;4993651;28;20046;-87
2022/06/24 02:46:06;;;;;;;17.23;12.85;;;;;;;21.03;88.73;69113.72;4994958;28;20042;-89
2022/06/24 02:48:33;;;;;;;18.60;14.25;;;;;;;;;;5001381;28;20568;-88
2022/06/24 02:50:59;;;;;;;23.95;15.23;;;;;;;;;;4997477;28;20056;-88
2022/06/24 02:53:26;;;;;;;19.40;14.70;;;;;;;20.96;90.47;69105.69;5010805;28;20689;-88
2022/06/24 02:55:57;;;;;;;21.80;15.57;;;;;;;20.95;91.47;69105.13;4998036;28;20108;-89
2022/06/24 02:58:23;;;;;;;19.40;14.95;;;;;;;20.86;93.43;69094.84;4980489;28;20122;-87
2022/06/24 03:00:49;;;;;;;21.92;16.50;;;;;;;20.86;93.07;69094.25;4987452;28;20141;-88
2022/06/24 03:03:15;;;;;;;22.60;16.50;;;;;;;;;;4984540;28;20049;-88
2022/06/24 03:05:41;;;;;;;23.60;17.27;;;;;;;;;;4985423;28;20554;-87
2022/06/24 03:08:08;;;;;;;18.50;15.90;;;;;;;20.71;93.43;69077.66;4997301;28;20114;-88
2022/06/24 03:10:33;;;;;;;24.05;17.63;;;;;;;20.68;94.12;69074.22;4996344;28;20062;-86
2022/06/24 03:12:59;;;;;;;23.25;18.33;;;;;;;20.68;95.44;69074.22;4992792;28;20068;-89
2022/06/24 03:15:25;;;;;;;24.83;18.38;;;;;;;20.65;94.76;69076.78;5002223;28;20038;-87
2022/06/24 03:17:50;;;;;;;22.00;18.17;;;;;;;20.66;96.08;69067.13;5013844;28;20073;-87
2022/06/24 03:20:18;;;;;;;23.60;18.15;;;;;;;20.71;94.44;69080.38;4997016;28;20066;-88
2022/06/24 03:22:43;;;;;;;21.73;17.50;;;;;;;20.72;95.55;69079.38;5015536;28;20070;-88
2022/06/24 03:25:09;;;;;;;24.85;16.80;;;;;;;20.73;94.28;69080.53;4984685;28;20434;-87
2022/06/24 03:27:35;;;;;;;22.63;16.48;;;;;;;20.71;95.42;69077.66;4976386;28;20565;-87
2022/06/24 03:30:02;;;;;;;19.08;14.50;;;;;;;20.70;93.41;69077.09;5006123;28;20093;-87
2022/06/24 03:32:27;;;;;;;17.52;14.88;;;;;;;;;;4995816;28;20572;-88
2022/06/24 03:34:53;;;;;;;20.33;14.88;;;;;;;20.65;94.89;69074.06;4986647;28;20046;-88
2022/06/24 03:37:18;;;;;;;18.77;15.50;;;;;;;;;;4988790;28;20038;-89
2022/06/24 03:39:46;;;;;;;18.42;13.35;;;;;;;20.57;97.44;69056.84;4994963;28;20734;-88
2022/06/24 03:42:12;;;;;;;18.90;14.27;;;;;;;;;;5003227;23;20536;-78
2022/06/24 03:44:37;;;;;;;18.02;14.10;;;;;;;20.43;97.78;69046.78;5005696;28;20304;-78
2022/06/24 03:47:02;;;;;;;19.67;14.52;;;;;;;;;;5003483;28;20145;-79
2022/06/24 03:49:28;;;;;;;16.70;14.65;;;;;;;20.53;100.00;69052.25;4994369;28;20038;-80
2022/06/24 03:51:53;;;;;;;18.23;15.95;;;;;;;;;;4984026;28;20058;-78
2022/06/24 03:54:22;;;;;;;15.57;13.95;;;;;;;20.37;99.44;69039.91;5047509;23;20024;-88
2022/06/24 03:56:56;;;;;;;15.40;13.10;;;;;;;20.27;100.00;69029.03;4953707;28;20054;-87
2022/06/24 03:59:27;;;;;;;16.80;13.88;;;;;;;;;;4936331;28;20042;-87
2022/06/24 04:02:02;;;;;;;18.35;13.82;;;;;;;;;;4900433;29;20411;-88
2022/06/24 04:04:40;;;;;;;19.67;14.90;;;;;;;20.33;100.00;69029.34;4877525;29;20088;-85
2022/06/24 04:07:09;;;;;;;18.65;15.70;;;;;;;;;;4850872;29;20171;-87
2022/06/24 04:09:48;;;;;;;20.25;15.85;;;;;;;20.22;100.00;69017.34;4830789;29;48823;-88
2022/06/24 04:12:17;;;;;;;21.50;18.07;;;;;;;20.22;100.00;69017.91;4577883;29;5577285;-88
2022/06/24 04:19:30;;;;;;;19.65;15.73;;;;;;;;;;5021607;28;20098;-87
2022/06/24 04:22:08;;;;;;;;;;;;;;;;;;;;;
2022/06/24 04:24:48;;;;;;;18.27;16.30;;;;;;;20.21;100.00;69016.22;5072602;28;20055;-86
2022/06/24 04:27:16;;;;;;;20.25;16.70;;;;;;;20.17;100.00;69017.03;5029944;28;20025;-85
2022/06/24 04:29:42;;;;;;;20.17;16.50;;;;;;;;;;5024549;28;20074;-86
2022/06/24 04:32:10;;;;;;;22.48;17.38;;;;;;;20.23;100.00;69023.91;4965788;28;20043;-87
2022/06/24 04:34:47;;;;;;;;;;;;;;;;;;;;;
2022/06/24 04:37:13;;;;;;;19.75;16.42;;;;;;;20.15;100.00;69014.75;4920241;29;20124;-86
2022/06/24 04:39:55;;;;;;;21.13;17.55;;;;;;;20.16;100.00;69010.50;4866736;28;20170;-85
2022/06/24 04:42:26;;;;;;;19.52;17.27;;;;;;;20.14;100.00;69014.19;4874307;29;20053;-86
2022/06/24 04:44:51;;;;;;;20.73;18.45;;;;;;;;;;4858558;29;20132;-86
2022/06/24 04:47:20;;;;;;;20.00;17.88;;;;;;;;;;4860699;29;20146;-86
2022/06/24 04:49:56;;;;;;;18.88;16.65;;;;;;;20.16;100.00;69010.50;4858507;29;20043;-86
2022/06/24 04:52:28;;;;;;;20.77;18.42;;;;;;;20.26;100.00;69027.91;4840830;29;20061;-86
2022/06/24 04:55:10;;;;;;;20.52;18.38;;;;;;;20.27;100.00;69029.03;4819274;29;20802;-87
2022/06/24 04:57:47;;;;;;;20.47;17.43;;;;;;;20.26;100.00;69027.91;4675110;29;3977701;-86
2022/06/24 05:00:20;;;;;;;20.02;17.92;;;;;;;20.20;100.00;69021.06;4739125;29;2506687;-87
2022/06/24 05:02:56;;;;;;;21.08;17.40;;;;;;;20.15;100.00;69015.31;4412918;29;7935859;-87
2022/06/24 05:05:25;;;;;;;20.90;17.00;;;;;;;20.18;100.00;69018.75;4720709;29;2273631;-89
2022/06/24 05:07:53;;;;;;;19.70;17.60;;;;;;;;;;4773751;29;20114;-89
2022/06/24 05:10:37;;;;;;;19.60;17.50;;;;;;;20.21;100.00;69022.19;4573334;29;7324426;-89
2022/06/24 05:13:03;;;;;;;21.00;18.70;;;;;;;;;;4434178;29;6266327;-90
2022/06/24 05:15:28;;;;;;;21.20;18.40;;;;;;;;;;4353563;29;6249699;-89
2022/06/24 05:18:08;;;;;;;19.55;17.45;;;;;;;;;;4853595;29;49421;-90
2022/06/24 05:23:19;;;;;;;19.55;15.90;;;;;;;20.06;100.00;69005.59;5018203;27;20134;-83
2022/06/24 05:25:45;;;;;;;17.77;15.38;;;;;;;20.08;100.00;69007.31;5010666;28;20055;-84
2022/06/24 05:28:10;;;;;;;18.02;16.10;;;;;;;20.16;100.00;69016.47;5000104;28;20045;-85
2022/06/24 05:30:35;;;;;;;18.48;15.65;;;;;;;20.02;100.00;69000.47;5013105;28;20203;-83
2022/06/24 05:33:01;;;;;;;17.30;15.60;;;;;;;20.13;100.00;69012.47;5024613;28;20306;-86
2022/06/24 05:35:26;;;;;;;16.10;14.35;;;;;;;;;;5017351;28;20030;-84
2022/06/24 05:37:51;;;;;;;18.63;14.60;;;;;;;;;;5010975;28;20042;-84
2022/06/24 05:40:17;;;;;;;17.50;14.45;;;;;;;20.10;100.00;69009.03;5006908;28;20764;-83
2022/06/24 05:42:42;;;;;;;15.55;13.48;;;;;;;20.09;100.00;69007.91;5003601;28;20038;-83
2022/06/24 05:45:08;;;;;;;16.67;13.48;;;;;;;20.05;100.00;69007.19;5001166;28;20142;-85
2022/06/24 05:47:34;;;;;;;14.90;13.38;;;;;;;19.98;100.00;68999.16;5002922;28;20160;-84
2022/06/24 05:50:00;;;;;;;16.48;14.82;;;;;;;20.01;100.00;68999.88;5002774;28;20068;-85
2022/06/24 05:55:09;;;;;;;16.33;14.68;;;;;;;20.06;100.00;69005.59;5007156;28;20591;-83
2022/06/24 05:57:34;;;;;;;15.90;14.20;;;;;;;;;;5010357;28;20054;-82
2022/06/24 05:59:59;;;;;;;11.30;9.67;;;;;;;;;;5011434;28;20050;-83
2022/06/24 06:02:25;;;;;;;13.98;9.75;;;;;;;19.84;100.00;68981.03;5009815;28;20308;-83
2022/06/24 06:04:50;;;;;;;9.63;8.60;;;;;;;;;;5007727;28;20046;-83
2022/06/24 06:07:16;;;;;;;11.07;8.75;;;;;;;19.74;100.00;68969.03;5007125;28;20489;-83
2022/06/24 06:09:41;;;;;;;10.55;8.00;;;;;;;19.60;100.00;68953.59;5005678;28;20292;-83
2022/06/24 06:12:07;;;;;;;10.02;7.70;;;;;;;19.68;100.00;68962.16;5005130;28;20405;-84
2022/06/24 06:14:32;;;;;;;9.82;8.30;;;;;;;19.59;100.00;68953.00;5008834;28;20099;-83
2022/06/24 06:16:58;;;;;;;10.70;8.95;;;;;;;19.50;100.00;68945.41;5009535;28;20042;-84
2022/06/24 06:19:23;;;;;;;10.75;7.70;;;;;;;19.49;100.00;68941.00;5011033;28;20034;-84
2022/06/24 06:21:49;;;;;;;11.30;8.48;;;;;;;19.45;100.00;68936.44;5008466;28;20034;-83
2022/06/24 06:24:14;;;;;;;9.60;7.35;;;;;;;19.48;100.00;68939.84;5013876;28;20048;-83
2022/06/24 06:26:39;;;;;;;6.63;5.93;;;;;;;19.47;100.00;68941.41;5010988;28;20038;-83
2022/06/24 06:29:05;;;;;;;7.93;5.70;;;;;;;19.43;100.00;68936.84;5012972;28;20060;-83
2022/06/24 06:31:30;;;;;;;6.45;5.00;;;;;;;19.36;100.00;68932.09;5008991;28;20038;-84
2022/06/24 06:33:56;;;;;;;7.28;5.47;;;;;;;19.35;100.00;68928.28;4998225;28;20545;-84
2022/06/24 06:36:21;;;;;;;6.03;5.15;;;;;;;19.39;100.00;68936.13;4994848;28;20034;-84
2022/06/24 06:38:47;;;;;;;7.43;5.30;;;;;;;19.39;100.00;68930.72;4990848;28;20564;-84
2022/06/24 06:41:18;;;;;;;6.97;5.90;;;;;;;19.36;100.00;68926.72;4984243;28;20609;-84
2022/06/24 06:43:44;;;;;;;7.72;6.32;;;;;;;19.43;100.00;68934.16;4991101;28;20050;-84
2022/06/24 06:46:10;;;;;;;8.77;6.50;;;;;;;;;;4992325;28;20038;-84
2022/06/24 06:48:35;;;;;;;8.40;6.50;;;;;;;;;;4996360;28;20038;-84
2022/06/24 06:51:00;;;;;;;10.23;6.30;;;;;;;;;;4993771;28;20034;-83
2022/06/24 06:53:27;;;;;;;8.30;6.63;;;;;;;19.28;100.00;68918.16;4992291;28;20621;-83
2022/06/24 06:55:53;;;;;;;8.98;5.80;;;;;;;19.16;100.00;68909.81;4997170;28;20281;-84
2022/06/24 06:58:19;;;;;;;9.10;6.07;;;;;;;19.15;100.00;68909.25;4998219;28;20049;-84
2022/06/24 07:00:45;;;;;;;6.63;5.05;;;;;;;19.12;100.00;68899.88;4992000;28;20051;-83
2022/06/24 07:03:10;;;;;;;6.20;4.90;;;;;;;;;;4995306;28;20092;-84
2022/06/24 07:05:36;;;;;;;5.78;5.18;;;;;;;;;;4992883;28;20553;-83
2022/06/24 07:08:01;;;;;;;6.80;5.22;;;;;;;;;;4992247;28;20042;-82
2022/06/24 07:10:27;;;;;;;7.18;5.07;;;;;;;19.02;100.00;68888.44;4988688;28;20052;-82
2022/06/24 07:12:52;;;;;;;6.95;4.50;;;;;;;19.03;100.00;68889.59;4991305;28;20097;-83
2022/06/24 07:15:18;;;;;;;8.63;5.38;;;;;;;18.95;100.00;68881.03;4992369;28;20060;-84
2022/06/24 07:17:43;;;;;;;7.38;5.20;;;;;;;18.94;100.00;68885.84;4993812;28;20117;-83
2022/06/24 07:20:09;;;;;;;7.07;5.00;;;;;;;;;;4994346;28;20042;-84
2022/06/24 07:22:34;;;;;;;5.88;4.80;;;;;;;18.94;100.00;68880.44;4994056;28;20080;-84
2022/06/24 07:24:59;;;;;;;6.53;4.78;;;;;;;;;;4994561;28;20074;-85
2022/06/24 07:27:25;;;;;;;7.77;6.03;;;;;;;18.88;100.00;68876.28;4989464;28;20045;-84
2022/06/24 07:29:50;;;;;;;9.82;6.63;;;;;;;18.85;100.00;68869.59;4975344;28;20274;-84
2022/06/24 07:32:16;;;;;;;8.63;5.53;;;;;;;18.77;100.00;68855.63;4988860;28;20054;-84
2022/06/24 07:34:41;;;;;;;7.68;5.60;;;;;;;18.78;100.00;68864.88;4993010;28;20042;-84
2022/06/24 07:37:07;;;;;;;12.73;5.45;;;;;;;18.77;100.00;68860.47;4992628;28;20042;-83
2022/06/24 07:39:33;;;;;;;7.22;4.90;;;;;;;18.70;100.00;68853.00;4992663;28;20035;-85
2022/06/24 07:41:58;;;;;;;7.75;5.00;;;;;;;18.66;100.00;68848.44;4990646;28;20045;-84
2022/06/24 07:44:24;;;;;;;7.20;4.93;;;;;;;18.72;100.00;68855.88;4992510;28;20078;-84
2022/06/24 07:46:50;;;;;;;6.72;4.63;;;;;;;18.66;100.00;68849.00;4991299;28;20105;-83
2022/06/24 07:49:16;;;;;;;5.65;4.35;;;;;;;18.66;100.00;68849.00;4988709;28;20169;-84
2022/06/24 07:51:42;;;;;;;5.82;4.80;;;;;;;18.66;100.00;68849.00;4979922;28;20038;-84
2022/06/24 07:54:08;;;;;;;6.38;5.05;;;;;;;18.69;100.00;68855.13;4989779;28;20547;-84
2022/06/24 07:56:57;;;;;;;7.65;5.10;;;;;;;18.72;100.00;68858.56;4988316;28;20080;-85
2022/06/24 07:59:34;;;;;;;5.03;4.20;;;;;;;18.58;100.00;68842.56;4990304;28;20168;-84
2022/06/24 08:02:02;;;;;;;6.40;5.00;;;;;;;18.64;100.00;68846.75;5001299;28;20493;-84
2022/06/24 08:04:28;;;;;;;6.82;4.15;;;;;;;18.54;100.00;68838.00;4987128;28;20470;-84
2022/06/24 08:06:54;;;;;;;6.45;4.00;;;;;;;18.51;100.00;68831.88;4989165;28;20121;-85
2022/06/24 08:09:25;;;;;;;6.10;4.93;;;;;;;18.51;100.00;68834.59;4987246;28;20133;-85
2022/06/24 08:11:52;;;;;;;7.82;5.00;;;;;;;18.49;100.00;68832.28;4987616;28;20061;-85
2022/06/24 08:14:17;;;;;;;6.82;3.78;;;;;;;;;;4986571;28;20046;-85
2022/06/24 08:16:44;;;;;;;10.13;5.55;;;;;;;18.32;100.00;68810.19;4986696;28;20544;-84
2022/06/24 08:19:10;;;;;;;7.10;3.95;;;;;;;18.27;100.00;68813.72;4986234;28;20046;-86
2022/06/24 08:21:35;;;;;;;8.38;3.80;;;;;;;18.02;100.00;68777.66;4983780;28;20038;-84
2022/06/24 08:24:01;;;;;;;7.82;3.72;;;;;;;17.96;100.00;68770.81;4988308;28;20073;-84
2022/06/24 08:26:27;;;;;;;8.80;4.22;;;;;;;17.92;100.00;68771.06;4987232;28;20046;-83
2022/06/24 08:28:53;;;;;;;8.27;3.70;;;;;;;17.86;100.00;68758.81;4986693;28;20126;-84
2022/06/24 08:31:19;;;;;;;10.68;4.13;;;;;;;17.77;100.00;68751.78;4986882;28;20046;-83
2022/06/24 08:33:44;;;;;;;6.45;3.30;;;;;;;17.70;100.00;68741.69;4987132;28;20045;-83
2022/06/24 08:36:10;;;;;;;7.47;4.25;;;;;;;;;;4987658;28;20521;-84
2022/06/24 08:38:36;;;;;;;7.50;3.72;;;;;;;17.77;100.00;68749.66;4988685;28;20498;-83
2022/06/24 08:41:02;;;;;;;5.20;3.38;;;;;;;17.78;100.00;68753.53;4975503;28;20038;-83
2022/06/24 08:43:33;;;;;;;5.85;3.95;;;;;;;17.85;100.00;68760.38;4988521;28;20051;-83
2022/06/24 08:46:03;;;;;;;8.05;4.82;;;;;;;18.02;100.00;68780.34;4989171;28;20038;-84
2022/06/24 08:48:31;;;;;;;7.47;5.53;;;;;;;18.06;100.00;68781.66;4987558;28;20043;-85
2022/06/24 08:50:57;;;;;;;7.55;5.32;;;;;;;18.15;100.00;68786.53;5019189;28;20669;-85
2022/06/24 08:53:26;;;;;;;9.00;6.38;;;;;;;18.29;100.00;68810.03;4986261;28;20117;-85
2022/06/24 08:55:51;;;;;;;8.65;6.78;;;;;;;;;;4986205;28;20049;-85
2022/06/24 08:58:18;;;;;;;10.73;9.32;;;;;;;18.42;100.00;68827.00;4988610;28;20042;-85
2022/06/24 09:00:44;;;;;;;11.25;7.88;;;;;;;18.48;100.00;68828.47;4985447;28;20074;-85
2022/06/24 09:03:11;;;;;;;13.88;9.80;;;;;;;18.60;100.00;68842.16;4986660;28;20127;-85
2022/06/24 09:05:36;;;;;;;14.20;11.18;;;;;;;18.68;100.00;68850.75;4984805;28;20050;-83
2022/06/24 09:08:17;;;;;;;12.65;10.70;;;;;;;18.80;100.00;68863.88;4986478;28;20042;-84
2022/06/24 09:13:29;;;;;;;11.30;10.15;;;;;;;18.93;100.00;68879.31;4987522;28;20504;-83
2022/06/24 09:15:54;;;;;;;10.70;9.20;;;;;;;18.84;100.00;68869.03;4986309;28;20047;-83
2022/06/24 09:18:21;;;;;;;10.48;9.13;;;;;;;;;;5019468;28;20062;-84
2022/06/24 09:20:48;;;;;;;11.68;9.52;;;;;;;;;;4986267;28;20528;-83
2022/06/24 09:23:13;;;;;;;10.73;9.63;;;;;;;19.00;100.00;68888.88;4986447;28;20125;-84
2022/06/24 09:25:52;;;;;;;10.48;8.40;;;;;;;;;;4986507;28;20133;-83
2022/06/24 09:28:21;;;;;;;10.00;8.50;;;;;;;19.27;100.00;68916.44;4992030;28;20049;-84
2022/06/24 09:30:46;;;;;;;10.00;8.05;;;;;;;;;;4990018;28;20034;-84
2022/06/24 09:33:17;;;;;;;10.20;9.10;;;;;;;;;;4986545;28;20057;-83
2022/06/24 09:35:43;;;;;;;10.57;7.55;;;;;;;19.22;100.00;68914.00;4985477;28;20085;-84
2022/06/24 09:38:08;;;;;;;10.15;8.25;;;;;;;19.21;100.00;68904.19;4983261;28;20054;-84
2022/06/24 09:40:33;;;;;;;10.80;8.27;;;;;;;19.28;100.00;68917.59;4983359;28;20038;-84
2022/06/24 09:43:04;;;;;;;11.50;8.40;;;;;;;19.31;100.00;68921.59;4979864;28;20536;-84
2022/06/24 09:45:46;;;;;;;11.43;10.23;;;;;;;19.54;100.00;68947.28;4981085;28;20125;-84
2022/06/24 09:48:33;;;;;;;10.90;8.95;;;;;;;19.64;100.00;68949.47;4984358;28;20042;-84
2022/06/24 09:51:04;;;;;;;9.05;7.63;;;;;;;19.49;100.00;68941.00;4960630;28;20101;-84
2022/06/24 09:53:40;;;;;;;10.25;7.07;;;;;;;19.50;100.00;68942.72;4964847;28;20049;-84
2022/06/24 09:56:07;;;;;;;9.80;7.45;;;;;;;19.63;100.00;68956.44;4965675;28;20183;-86
2022/06/24 09:58:33;;;;;;;9.75;7.82;;;;;;;;;;4965510;28;20043;-86
2022/06/24 10:00:59;;;;;;;10.93;8.82;;;;;;;19.75;100.00;68970.75;4969132;28;20043;-86
2022/06/24 10:03:24;;;;;;;11.13;9.45;;;;;;;;;;4966835;28;20089;-87
2022/06/24 10:05:51;;;;;;;9.85;8.85;;;;;;;19.79;100.00;68978.03;4966432;28;20078;-86
2022/06/24 10:08:20;;;;;;;10.35;9.02;;;;;;;19.86;100.00;68982.75;4966544;28;20054;-86
2022/06/24 10:10:50;;;;;;;11.30;9.45;;;;;;;19.84;100.00;68983.72;4972306;28;20134;-87
2022/06/24 10:13:28;;;;;;;12.40;11.13;;;;;;;19.88;100.00;68979.03;4969461;28;20059;-86
2022/06/24 10:16:01;;;;;;;13.43;12.02;;;;;;;19.79;100.00;68974.72;4986040;28;20085;-86
2022/06/24 10:18:47;;;;;;;13.75;12.18;;;;;;;;;;4988555;28;20046;-86
2022/06/24 10:21:16;;;;;;;12.60;11.27;;;;;;;19.80;100.00;68971.06;4988042;28;20092;-86
2022/06/24 10:23:43;;;;;;;16.58;13.55;;;;;;;19.84;100.00;68986.44;4987918;28;20042;-86
2022/06/24 10:26:30;;;;;;;12.75;11.45;;;;;;;19.89;100.00;68988.88;4989873;28;20047;-86
2022/06/24 10:29:04;;;;;;;14.70;12.40;;;;;;;19.86;100.00;68982.75;4989146;28;20101;-87
2022/06/24 10:31:42;;;;;;;13.52;11.95;;;;;;;19.80;100.00;68975.91;4990182;28;20425;-86
2022/06/24 10:34:07;;;;;;;11.90;10.70;;;;;;;;;;5004138;28;20104;-87
2022/06/24 10:36:33;;;;;;;12.85;11.45;;;;;;;19.86;100.00;68982.75;4984122;28;20625;-86
2022/06/24 10:39:09;;;;;;;11.55;9.82;;;;;;;;;;4990438;28;20049;-86
2022/06/24 10:41:37;;;;;;;11.88;9.85;;;;;;;;;;4989950;28;20061;-86
2022/06/24 10:44:22;;;;;;;12.93;10.55;;;;;;;19.98;100.00;68995.91;4991578;28;20046;-87
2022/06/24 10:47:08;;;;;;;11.27;10.18;;;;;;;;;;5019576;28;20046;-87
2022/06/24 10:49:54;;;;;;;11.65;9.85;;;;;;;20.08;100.00;69006.75;4988058;28;20120;-87
2022/06/24 10:52:45;;;;;;;10.48;9.40;;;;;;;20.00;100.00;68998.19;4987059;28;20042;-87
2022/06/24 10:57:43;;;;;;;11.98;9.80;;;;;;;20.40;100.00;69043.34;4988324;28;20061;-87
2022/06/24 11:00:19;;;;;;;12.50;9.45;;;;;;;20.45;100.00;69049.03;4988732;28;20699;-87
2022/06/24 11:02:46;;;;;;;13.20;9.80;;;;;;;20.58;100.00;69057.41;5016114;28;20112;-87
2022/06/24 11:05:29;;;;;;;12.63;9.68;;;;;;;20.55;100.00;69053.97;4989993;28;20046;-86
2022/06/24 11:07:54;;;;;;;158.60;18.67;;;;;;;20.65;100.00;69070.81;4990066;28;20034;-87
2022/06/24 11:10:26;;;;;;;17.50;9.75;;;;;;;20.66;100.00;69072.53;4989655;28;20042;-86
2022/06/24 11:12:58;;;;;;;11.18;10.07;;;;;;;20.53;100.00;69060.34;4987606;28;20682;-87
2022/06/24 11:15:34;;;;;;;11.02;9.93;;;;;;;;;;4986981;28;20232;-88
2022/06/24 11:18:04;;;;;;;11.45;9.70;;;;;;;;;;4992598;28;20173;-88
2022/06/24 11:20:29;;;;;;;11.32;10.13;;;;;;;20.79;100.00;69081.41;4989467;28;20054;-87
2022/06/24 11:22:55;;;;;;;11.25;9.98;;;;;;;21.03;100.00;69108.31;4986394;28;20073;-87
2022/06/24 11:25:22;;;;;;;9.55;8.55;;;;;;;20.91;98.39;69100.53;4989261;28;20046;-87
2022/06/24 11:27:48;;;;;;;9.35;8.38;;;;;;;20.92;98.14;69095.72;4986909;28;20494;-86
2022/06/24 11:30:13;;;;;;;10.95;8.00;;;;;;;20.82;95.55;69089.69;4988063;28;20045;-87
2022/06/24 11:32:59;;;;;;;9.63;8.52;;;;;;;20.90;96.89;69099.41;5020687;28;20042;-87
2022/06/24 11:35:26;;;;;;;10.27;8.68;;;;;;;20.98;95.89;69107.41;5020405;28;20690;-87
2022/06/24 11:37:53;;;;;;;8.85;7.93;;;;;;;;;;4989608;28;20042;-87
2022/06/24 11:40:19;;;;;;;9.25;8.32;;;;;;;;;;5019590;28;20038;-86
2022/06/24 11:42:45;;;;;;;9.75;8.75;;;;;;;;;;4988075;28;20048;-87
2022/06/24 11:45:11;;;;;;;10.15;9.15;;;;;;;;;;4988731;28;20497;-87
2022/06/24 11:47:36;;;;;;;12.50;9.88;;;;;;;;;;4988662;28;20045;-86
2022/06/24 11:50:02;;;;;;;10.18;9.27;;;;;;;;;;4987774;28;20058;-86
2022/06/24 11:52:27;;;;;;;15.43;11.50;;;;;;;;;;4987687;28;20038;-87
2022/06/24 11:54:52;;;;;;;23.15;10.82;;;;;;;21.22;94.57;69134.31;4989086;28;20046;-87
2022/06/24 11:57:18;;;;;;;10.80;9.65;;;;;;;21.35;96.05;69149.75;4987546;28;20053;-87
2022/06/24 11:59:43;;;;;;;10.93;8.65;;;;;;;;;;4985502;28;20450;-87
2022/06/24 12:02:12;;;;;;;11.23;10.02;;;;;;;21.64;94.96;69176.41;4986925;28;20088;-87
2022/06/24 12:04:38;;;;;;;11.15;9.48;;;;;;;21.77;92.68;69191.25;4988690;28;20145;-87
2022/06/24 12:07:06;;;;;;;10.35;9.27;;;;;;;;;;4987746;28;20585;-87
2022/06/24 12:09:32;;;;;;;;;;;;;;;;;;4989226;28;20045;-87
2022/06/24 12:12:08;;;;;;;10.68;9.55;;;;;;;21.88;91.13;69202.72;4987349;28;19913;-87
2022/06/24 12:14:33;;;;;;;11.70;10.50;;;;;;;;;;4988514;28;20505;-87
2022/06/24 12:17:03;;;;;;;10.83;9.77;;;;;;;21.83;90.85;69202.97;4991027;28;20050;-87
2022/06/24 12:19:31;;;;;;;10.00;9.00;;;;;;;22.10;88.59;69225.19;4980707;28;20702;-87
2022/06/24 12:22:08;;;;;;;9.50;8.27;;;;;;;22.33;86.45;69258.53;4986796;28;20405;-87
2022/06/24 12:24:34;;;;;;;8.38;7.13;;;;;;;22.50;87.47;69273.16;4987793;28;20568;-88
2022/06/24 12:27:03;;;;;;;8.35;7.28;;;;;;;;;;4988834;28;20676;-87
2022/06/24 12:29:32;;;;;;;9.07;7.95;;;;;;;22.77;85.52;69302.94;4999306;28;20097;-87
2022/06/24 12:31:59;;;;;;;8.27;7.30;;;;;;;22.79;83.32;69310.06;4986581;28;20047;-87
2022/06/24 12:34:30;;;;;;;9.02;7.63;;;;;;;22.68;83.48;69298.63;4988367;28;20030;-87